Date,TemperatureHighF,TemperatureAvgF,TemperatureLowF,DewpointHighF,DewpointAvgF,DewpointLowF,HumidityHigh,HumidityAvg,HumidityLow,PressureMaxIn,PressureMinIn,WindSpeedMaxMPH,WindSpeedAvgMPH,GustSpeedMaxMPH,PrecipitationSumIn
2013-1-1,28,27,26,28,27,26,99,99,99,29.62,29.57,0,0,0,0.01
2013-1-2,51,33,28,46,32,28,99,98,81,30.59,30.43,2,0,2,0.00
2013-1-3,29,27,25,28,27,25,99,99,99,30.42,30.31,0,0,0,0.00
2013-1-4,41,36,33,40,36,33,99,99,99,30.53,30.35,3,1,3,0.13
2013-1-5,42,38,34,41,38,34,99,99,99,30.43,30.28,6,1,6,0.13
2013-1-6,40,38,35,40,37,34,99,99,99,30.38,30.21,2,0,2,0.05
2013-1-7,39,37,36,39,37,36,99,99,99,30.20,30.02,2,0,3,0.18
2013-1-8,48,39,35,48,39,35,99,99,99,30.37,29.85,12,2,12,0.58
2013-1-9,48,40,38,48,40,37,99,99,99,29.94,29.85,11,2,11,0.38
2013-1-10,35,34,33,35,34,33,99,99,99,30.26,30.14,2,0,2,0.00
2013-1-11,30,26,24,26,25,23,99,96,84,30.49,30.36,0,0,0,0.00
2013-1-13,36,28,19,29,26,19,99,91,70,30.70,30.64,2,0,2,0.00
2013-1-14,31,29,28,30,29,28,99,99,97,30.71,30.66,0,0,0,0.00
2013-1-17,30,29,28,30,29,28,99,99,99,29.58,29.57,2,1,3,0.00
2013-1-18,43,33,28,39,32,27,99,97,87,30.57,30.46,3,1,3,0.00
2013-1-19,56,35,28,45,33,28,99,95,61,30.62,30.56,2,1,2,0.00
2013-1-20,62,38,29,41,34,29,99,89,40,30.62,30.52,3,1,3,0.00
2013-1-21,36,29,28,35,29,27,99,99,99,30.51,30.43,2,0,2,0.00
2013-1-22,30,30,30,29,29,29,99,99,99,29.24,29.24,2,2,2,0.00
2013-1-23,38,36,35,38,36,34,99,98,94,30.16,30.09,4,2,4,0.06
2013-1-24,42,37,33,41,37,33,99,99,93,30.42,30.25,3,1,3,0.05
2013-1-25,48,39,34,48,39,34,99,99,97,30.28,30.16,4,1,4,0.07
2013-1-26,37,35,32,37,34,31,99,99,99,30.18,30.10,2,1,2,0.05
2013-1-27,35,34,34,35,34,34,99,99,99,29.16,29.14,2,1,4,0.05
2013-1-29,39,38,38,38,38,38,99,99,99,29.46,29.44,5,3,7,0.19
2013-1-30,39,39,39,38,38,38,99,99,99,30.55,30.54,4,1,4,0.00
2013-1-31,46,43,41,45,43,41,99,99,99,30.56,30.51,3,0,3,0.08
2013-2-1,48,41,38,45,41,38,99,97,89,30.67,30.56,3,1,3,0.01
2013-2-2,62,40,32,49,38,32,99,94,56,30.64,30.46,4,1,4,0.00
2013-2-3,43,39,34,42,38,33,99,99,96,30.52,30.43,2,0,2,0.04
2013-2-4,44,40,39,43,40,39,99,99,99,30.41,30.34,4,1,4,0.01
2013-2-6,39,39,39,39,39,39,99,99,99,29.14,29.12,2,0,3,0.09
2013-2-7,44,40,37,42,39,37,99,98,89,30.25,30.00,6,1,6,0.02
2013-2-8,43,37,31,38,35,31,99,93,74,30.52,30.42,5,1,5,0.00
2013-2-9,44,38,35,40,37,34,99,95,82,30.56,30.46,2,0,2,0.00
2013-2-10,34,31,30,34,31,30,99,99,99,30.59,30.55,4,1,4,0.00
2013-2-11,44,39,35,42,38,35,99,98,92,30.57,30.52,2,0,2,0.01
2013-2-12,39,39,38,39,38,38,99,99,99,30.59,30.55,3,1,3,0.00
2013-2-13,51,43,36,45,40,35,99,90,67,30.71,30.49,5,1,5,0.01
2013-2-14,41,38,36,41,37,36,99,98,96,30.76,30.68,3,1,3,0.04
2013-2-16,50,43,39,46,42,39,99,97,84,30.38,30.28,4,1,4,0.18
2013-2-17,39,38,37,39,38,37,99,99,99,30.45,30.38,2,1,4,0.00
2013-2-20,35,34,34,32,32,32,91,90,88,29.15,29.15,2,2,2,0.00
2013-2-21,34,33,32,34,33,32,99,99,99,30.23,30.17,2,1,2,0.00
2013-2-22,38,37,36,37,36,36,99,99,99,30.23,29.96,4,2,4,0.07
2013-2-23,37,36,36,37,36,35,99,99,98,30.30,30.06,2,0,2,0.00
2013-2-24,47,40,36,43,39,35,99,95,81,30.56,30.10,10,1,10,0.02
2013-2-25,41,38,36,41,38,35,99,99,98,30.35,30.06,14,2,17,0.41
2013-2-26,37,35,34,37,35,34,99,99,99,30.55,30.49,2,1,5,0.00
2013-2-27,48,39,34,44,38,34,99,96,75,30.54,30.39,3,1,3,0.08
2013-2-28,44,39,34,44,39,34,99,99,99,30.51,30.41,3,1,3,0.27
2013-3-1,47,46,44,47,45,44,99,99,99,30.52,30.45,4,2,6,0.20
2013-3-3,34,33,32,34,33,32,99,99,99,30.55,30.53,2,2,2,0.00
2013-3-4,40,33,30,38,32,29,99,98,87,30.54,30.47,2,1,4,0.00
2013-3-5,49,40,33,40,35,32,99,84,58,30.22,30.00,5,1,5,0.00
2013-3-6,42,38,34,42,38,34,99,99,99,30.11,29.82,2,0,2,0.00
2013-3-7,47,40,34,45,39,34,99,98,92,30.34,30.11,2,0,2,0.00
2013-3-8,39,34,32,39,34,32,99,99,99,30.34,30.29,2,1,3,0.00
2013-3-9,34,33,32,34,32,32,99,99,99,29.53,29.45,2,2,2,0.00
2013-3-10,47,42,37,41,39,37,99,92,76,30.70,30.63,4,1,4,0.00
2013-3-11,39,36,34,39,36,34,99,99,95,30.66,30.62,4,1,4,0.00
2013-3-12,49,45,40,49,45,40,99,99,99,30.35,30.22,4,2,4,0.56
2013-3-13,54,47,45,54,47,44,99,99,99,30.38,30.29,4,1,4,0.14
2013-3-17,35,35,35,35,35,34,99,99,99,29.22,29.15,1,0,2,0.91
2013-3-19,33,32,32,31,31,30,94,93,91,29.91,29.91,4,2,5,1.06
2013-3-20,41,41,40,38,37,35,89,86,79,28.95,28.92,4,3,12,0.00
2013-3-21,38,36,35,36,34,33,92,91,90,29.24,29.20,2,0,2,0.00
2013-3-24,38,33,32,30,29,29,91,86,73,29.44,29.42,4,3,5,0.06
2013-3-27,42,42,42,40,40,40,92,92,92,29.10,29.10,2,2,2,0.00
2013-3-28,66,50,40,49,42,39,99,78,38,30.35,30.20,6,3,6,0.02
2013-3-29,66,52,41,48,43,38,99,77,38,30.46,30.35,7,2,7,0.00
2013-3-30,74,54,39,46,39,29,97,65,20,30.46,30.31,6,3,6,0.00
2013-3-31,81,58,40,43,32,14,85,49,10,30.29,30.11,6,3,6,0.00
2013-4-1,74,55,42,49,42,37,97,67,28,30.30,30.16,8,2,8,0.00
2013-4-2,58,51,46,48,46,45,98,85,64,30.38,30.30,4,1,4,0.00
2013-4-3,53,48,47,48,47,46,98,94,78,30.38,30.34,2,0,2,0.00
2013-4-4,54,50,46,53,47,42,99,90,67,30.17,29.82,4,2,4,0.18
2013-4-5,52,49,47,50,48,47,99,98,95,29.99,29.83,7,2,7,0.19
2013-4-6,59,46,41,48,44,39,99,92,52,30.08,29.85,7,2,7,0.35
2013-4-7,40,40,40,40,40,39,99,99,99,29.99,29.71,2,0,2,0.01
2013-4-8,41,41,40,41,40,40,99,99,99,30.22,30.05,4,1,4,0.01
2013-4-9,53,47,41,48,45,40,99,92,73,30.51,30.34,4,1,4,0.04
2013-4-10,53,47,43,49,46,42,99,97,81,30.38,30.03,11,2,11,0.35
2013-4-11,46,43,42,45,43,42,99,99,95,30.44,30.38,2,0,2,0.02
2013-4-12,45,40,34,42,39,34,99,97,82,30.34,29.82,3,1,3,0.20
2013-4-13,49,40,34,44,38,34,99,94,74,30.16,29.87,4,1,4,0.13
2013-4-14,36,36,34,36,35,34,99,99,99,30.18,30.14,2,1,3,0.00
2013-4-15,59,45,38,46,39,28,99,84,31,29.35,29.10,6,1,6,0.12
2013-4-16,63,47,36,38,30,14,99,62,15,29.55,29.35,6,3,6,0.00
2013-4-17,60,49,37,38,30,15,87,55,17,29.59,29.52,6,2,6,0.00
2013-4-18,50,46,42,47,44,40,99,91,78,29.57,29.46,2,0,2,0.06
2013-4-19,48,45,44,48,44,43,99,99,99,30.35,30.22,4,1,4,0.11
2013-4-20,48,46,45,47,46,45,99,99,99,30.38,30.32,2,0,2,0.12
2013-4-28,44,44,44,44,44,44,99,99,99,29.33,29.33,0,0,0,0.00
2013-4-29,42,41,40,42,40,40,99,99,97,29.19,29.09,2,0,4,0.19
2013-4-30,59,46,38,40,34,16,98,69,18,30.62,30.30,11,2,11,0.00
2013-5-1,67,50,35,40,30,14,98,58,13,30.75,30.62,7,2,7,0.00
2013-5-2,57,45,41,39,38,35,87,78,43,30.73,30.66,4,2,4,0.00
2013-5-3,78,59,41,46,38,19,99,57,11,30.58,30.44,10,3,10,0.00
2013-5-4,87,66,45,45,33,16,87,42,10,30.47,30.24,9,4,9,0.00
2013-5-5,95,71,51,49,35,21,74,35,10,30.24,30.00,8,3,8,0.00
2013-5-6,61,56,53,44,43,41,73,62,48,30.08,30.06,4,3,8,0.00
2013-5-7,83,66,50,54,47,39,91,57,25,30.17,30.03,9,2,9,0.00
2013-5-8,63,51,46,55,49,46,99,94,63,30.28,30.18,5,0,5,0.00
2013-5-10,73,70,67,51,48,46,55,47,39,29.35,29.35,1,0,3,0.00
2013-5-11,85,67,55,56,52,46,87,63,30,30.38,30.19,4,1,4,0.00
2013-5-12,61,58,57,58,57,55,99,96,79,30.25,30.18,3,1,3,0.43
2013-5-13,57,55,53,56,55,53,99,99,99,30.21,30.18,2,1,2,0.05
2013-5-14,47,45,45,46,45,44,99,99,99,30.41,30.36,4,0,4,0.00
2013-5-15,69,55,44,51,46,39,99,75,34,30.33,30.19,11,1,11,0.02
2013-5-16,72,58,50,56,51,44,99,80,37,30.22,30.07,7,1,7,0.02
2013-5-17,58,53,50,57,52,49,99,97,87,30.25,30.12,3,0,3,0.11
2013-5-18,50,50,50,50,50,50,99,99,99,30.30,30.24,1,0,2,0.09
2013-5-19,61,54,47,55,51,46,99,90,75,30.59,30.47,2,1,2,0.00
2013-5-20,49,46,44,47,45,44,99,98,93,30.55,30.48,4,2,4,0.00
2013-5-21,49,48,48,48,48,48,99,99,99,28.99,28.98,4,1,4,0.27
2013-5-24,60,52,42,52,48,42,99,86,67,29.17,29.14,6,1,7,0.25
2013-5-26,49,48,47,48,48,47,99,99,99,29.15,29.12,2,0,2,0.07
2013-5-31,53,51,50,53,51,49,99,99,97,29.51,29.47,2,1,3,0.61
2013-6-1,70,56,47,58,52,46,99,86,56,30.44,30.28,3,1,3,0.02
2013-6-2,51,49,46,51,49,46,99,99,99,30.28,30.25,0,0,0,0.00
2013-6-3,77,61,46,59,49,43,99,70,33,30.32,30.26,8,2,8,0.00
2013-6-4,84,65,47,54,50,45,99,64,28,30.33,30.24,4,2,4,0.00
2013-6-5,84,65,52,56,52,42,99,70,25,30.28,30.24,5,1,5,0.00
2013-6-6,73,58,50,55,51,49,99,82,45,30.26,30.24,2,1,4,0.00
2013-6-7,59,57,55,53,51,48,87,81,75,30.26,30.20,2,0,4,0.02
2013-6-8,71,58,45,51,48,44,99,74,40,30.36,30.30,4,1,4,0.00
2013-6-9,55,52,50,54,51,50,99,97,92,30.30,30.26,2,0,2,0.00
2013-6-11,64,54,50,52,49,45,99,84,50,30.29,30.11,4,1,4,0.04
2013-6-12,66,54,45,55,50,45,99,88,56,30.34,30.28,4,1,4,0.02
2013-6-13,68,57,47,53,49,43,99,78,41,30.37,30.32,4,1,4,0.01
2013-6-14,62,55,49,57,53,49,99,94,78,30.42,30.28,3,0,3,0.05
2013-6-15,83,64,45,60,49,39,99,66,23,30.27,30.14,5,2,5,0.00
2013-6-16,82,66,52,59,54,47,99,72,29,30.29,30.19,4,1,4,0.02
2013-6-17,68,59,55,62,58,55,99,96,79,30.28,30.23,2,0,6,0.00
2013-6-19,62,59,54,60,57,54,99,93,82,29.13,29.08,2,0,3,0.12
2013-6-22,76,64,55,59,56,53,99,80,47,30.33,30.09,5,1,5,0.00
2013-6-23,74,64,52,64,59,52,99,85,62,30.09,29.83,3,1,3,0.02
2013-6-24,66,60,56,62,58,55,99,93,74,29.92,29.77,4,0,4,0.07
2013-6-25,75,61,53,63,57,52,99,90,52,30.04,29.89,4,1,4,0.04
2013-6-26,71,61,53,65,58,53,99,91,68,30.29,30.04,2,0,2,0.04
2013-6-27,67,61,56,65,61,56,99,98,91,30.43,30.26,3,0,3,0.06
2013-6-28,67,60,55,65,59,55,99,98,92,30.43,30.36,3,0,3,0.00
2013-7-19,76,68,62,66,61,59,97,81,64,29.33,29.33,2,1,4,0.07
2013-7-20,87,68,52,63,56,50,99,72,29,30.25,30.16,5,1,5,0.00
2013-7-21,56,54,52,55,53,52,99,99,97,30.16,30.13,0,0,0,0.00
2013-7-31,65,63,60,62,60,59,95,92,88,29.27,29.26,2,0,2,0.00
2013-9-26,71,51,40,51,43,36,99,80,30,30.31,30.21,4,2,4,0.00
2013-9-27,52,48,44,52,48,43,99,99,97,30.29,30.03,2,1,2,0.17
2013-9-28,57,51,48,57,51,48,99,99,99,30.02,29.48,4,2,4,0.64
2013-9-29,52,50,48,52,49,48,99,99,99,29.70,29.34,8,2,8,0.53
2013-9-30,50,47,44,50,46,43,99,99,99,30.07,29.52,4,2,4,0.22
2013-10-1,58,47,43,53,47,42,99,98,85,30.28,30.06,4,1,4,0.11
2013-10-2,51,47,44,51,47,43,99,99,99,30.30,30.24,6,1,6,0.20
2013-10-6,85,60,48,58,43,11,99,64,10,30.35,30.01,11,2,11,0.00
2013-10-7,60,52,50,56,51,45,99,94,57,30.15,30.01,4,1,4,0.32
2013-10-8,61,48,42,53,47,41,99,94,65,30.29,30.14,3,1,3,0.26
2013-10-9,63,47,36,50,43,36,99,87,44,30.31,30.14,5,1,5,0.01
2013-10-10,58,48,42,50,46,42,99,92,67,30.26,30.11,3,1,3,0.00
2013-10-11,59,46,38,48,43,38,99,91,62,30.33,30.26,5,1,5,0.00
2013-10-12,45,44,42,45,43,42,99,99,99,30.29,30.25,2,0,2,0.00
2013-10-31,48,46,45,48,46,45,99,99,99,29.31,29.25,2,0,2,0.15
2013-11-2,47,47,47,46,46,46,99,99,99,28.72,28.67,2,1,3,0.17
2013-11-7,48,48,47,48,47,46,99,99,99,28.87,28.83,4,2,8,0.77
2013-11-8,51,45,42,51,45,41,99,99,99,30.34,30.11,3,1,3,0.11
2013-11-9,40,38,36,40,37,36,99,99,99,30.33,30.29,4,2,6,0.00
2013-11-10,42,41,40,42,41,40,99,99,99,30.30,30.29,2,0,2,0.00
2013-11-11,44,42,39,44,42,39,99,99,99,30.37,30.32,2,0,4,0.00
2013-11-12,46,45,44,46,45,44,99,99,99,30.26,30.19,6,2,6,0.01
2013-11-13,48,48,47,48,47,47,99,99,99,29.56,29.53,2,1,3,0.13
2013-11-22,52,32,25,39,30,25,99,92,45,30.82,30.63,4,1,4,0.00
2013-11-23,51,36,29,46,35,29,99,97,77,30.61,30.39,3,1,3,0.00
2013-11-24,60,39,32,46,37,32,99,94,48,30.44,30.34,3,1,3,0.00
2013-11-25,54,41,34,47,39,34,99,94,72,30.48,30.43,5,2,5,0.00
2013-11-26,56,41,34,41,36,34,99,86,44,30.44,30.30,4,2,4,0.00
2013-11-27,62,44,37,46,40,36,99,89,38,30.29,30.14,4,2,4,0.00
2013-11-28,42,39,38,41,39,38,99,99,99,30.27,30.21,3,2,4,0.00
2013-11-29,49,45,45,48,45,44,99,99,99,30.41,30.34,2,0,2,0.02
2013-11-30,45,44,43,44,44,43,99,99,99,30.48,30.45,2,0,2,0.12
2013-12-1,45,44,44,44,44,44,99,99,99,30.24,29.98,4,1,4,0.14
2013-12-2,40,36,33,37,35,33,99,96,87,30.00,29.92,6,1,6,0.02
2013-12-3,29,26,24,24,21,18,88,80,70,30.42,30.28,0,0,0,0.00
2013-12-4,25,22,19,23,20,18,97,93,81,30.51,30.47,0,0,0,0.00
2013-12-5,25,21,18,21,18,15,93,89,81,30.48,30.39,0,0,0,0.00
2013-12-6,23,17,14,14,3,-8,89,57,24,30.40,30.34,0,0,0,0.00
2013-12-7,36,16,10,7,-5,-25,77,45,10,30.56,30.43,4,2,4,0.00
2013-12-8,38,21,13,16,10,-10,85,67,12,30.70,30.54,3,1,3,0.00
2013-12-9,24,22,17,19,16,14,87,77,70,30.70,30.64,4,1,4,0.00
2013-12-12,33,32,31,32,32,31,99,99,99,29.18,29.16,4,2,5,0.01
2013-12-13,40,38,36,40,37,36,99,99,99,30.49,30.28,2,1,3,0.04
2013-12-14,40,38,37,40,38,37,99,99,99,30.59,30.49,7,2,7,0.01
2013-12-16,34,34,33,34,34,33,99,99,99,29.60,29.58,2,1,3,0.04
2013-12-17,35,35,34,35,34,34,99,99,99,30.42,30.32,4,2,4,0.00
2013-12-18,42,39,37,42,39,37,99,99,99,30.25,30.17,4,1,4,0.05
2013-12-19,31,27,25,30,27,25,99,99,97,30.51,30.38,0,0,0,0.00
2013-12-20,33,31,30,33,31,29,99,99,99,30.34,29.88,0,0,0,0.00
2013-12-21,36,34,33,36,34,33,99,99,99,30.33,30.03,1,0,1,0.06
2013-12-22,35,35,34,35,34,34,99,99,99,30.39,30.33,49,4,49,0.07
2013-12-23,40,40,40,40,40,39,99,99,99,29.27,29.25,2,1,3,0.27
2013-12-24,40,37,34,40,37,34,99,99,99,30.74,30.65,2,2,2,0.01
2013-12-25,39,35,30,39,35,30,99,99,99,30.70,30.55,4,0,4,0.00
2013-12-26,41,39,37,41,38,37,99,99,99,30.55,30.47,4,1,4,0.02
2013-12-27,42,40,37,42,39,37,99,99,99,30.37,30.23,3,2,3,0.09
2013-12-28,46,41,37,45,40,37,99,99,99,30.68,30.51,4,1,4,0.00
2013-12-29,37,36,35,36,36,35,99,99,99,30.62,30.54,2,1,2,0.00
2013-12-30,41,40,39,41,40,39,99,99,99,30.48,30.37,4,1,5,0.00
2013-12-31,42,42,42,42,42,42,99,99,99,30.38,30.33,1,0,2,0.00
2014-1-1,42,38,36,42,38,35,99,99,99,30.58,30.54,4,2,4,0.00
2014-1-2,44,43,42,44,43,41,99,99,99,30.41,30.18,4,1,4,0.11